Terminal Aerodrome Forecast
Issued by NWS Sioux Falls, SD

Home | Current Version | Previous Version | Text Only | Print | Product List | Glossary Off
Versions: 1 2 3 4 5 6 7 8 9 10 11 12 13 14 15 16 17

000
FTUS43 KFSD 071135
TAFFSD
TAF
KFSD 071135Z 0712/0812 28016G24KT P6SM FEW120 WS010/31045KT
     FM071500 29019G34KT P6SM SCT150
     FM071900 30023G37KT P6SM BKN050
     FM072100 32026G37KT P6SM VCSH SCT025 OVC040
      TEMPO 0801/0805 2SM -SHSN BLSN OVC025
     FM080800 33025G38KT 5SM BLSN OVC035=

USA.gov is the U.S. government's official web portal to all federal, state and local government web resources and services.